Time;durP1;ratioP1;P1;durP2;ratioP2;P2;SDS_P1;SDS_P2;PMS_P1;PMS_P2;Temp;Humidity;BMP_temperature;BMP_pressure;BME280_temperature;BME280_humidity;BME280_pressure;Samples;Min_cycle;Max_cycle;Signal;HPM_P1;HPM_P2
2021/10/24 00:02:21;;;;;;;13.85;6.38;;;;;;;9.11;84.08;102648.75;4994122;28;20057;-46
2021/10/24 00:04:49;;;;;;;13.45;6.78;;;;;;;9.07;84.04;102640.19;4994300;28;20045;-43
2021/10/24 00:07:17;;;;;;;13.73;6.63;;;;;;;9.09;84.41;102653.56;4994109;28;20069;-48
2021/10/24 00:09:44;;;;;;;11.50;6.78;;;;;;;9.11;84.15;102651.47;4993688;28;20445;-47
2021/10/24 00:12:12;;;;;;;15.18;6.72;;;;;;;9.13;84.06;102642.03;4994262;28;20035;-46
2021/10/24 00:14:39;;;;;;;15.82;7.05;;;;;;;9.14;84.27;102635.56;4993727;28;20034;-46
2021/10/24 00:17:07;;;;;;;13.25;6.50;;;;;;;9.15;84.10;102647.28;4993500;28;20045;-46
2021/10/24 00:19:35;;;;;;;13.30;6.80;;;;;;;9.14;84.33;102645.63;5007888;28;20109;-46
2021/10/24 00:22:04;;;;;;;14.60;6.82;;;;;;;9.16;84.16;102646.22;4993702;28;20051;-45
2021/10/24 00:24:32;;;;;;;12.55;6.45;;;;;;;9.14;83.77;102645.63;4993382;28;20050;-45
2021/10/24 00:26:59;;;;;;;18.25;6.70;;;;;;;9.13;83.93;102641.22;4993209;28;20045;-46
2021/10/24 00:29:27;;;;;;;15.68;6.50;;;;;;;9.11;84.10;102637.88;4993553;28;20039;-42
2021/10/24 00:31:55;;;;;;;11.65;6.13;;;;;;;9.11;83.94;102637.88;4993412;28;20129;-45
2021/10/24 00:34:22;;;;;;;18.92;6.30;;;;;;;9.11;83.95;102635.16;4980600;28;20078;-47
2021/10/24 00:36:50;;;;;;;13.65;6.22;;;;;;;9.12;83.76;102642.28;4993156;28;20097;-49
2021/10/24 00:39:17;;;;;;;13.00;6.88;;;;;;;9.10;83.83;102637.03;4993044;28;20046;-45
2021/10/24 00:41:45;;;;;;;11.02;6.10;;;;;;;9.08;83.75;102639.13;4992552;28;20054;-44
2021/10/24 00:44:24;;;;;;;10.05;6.00;;;;;;;9.07;83.60;102628.50;4992982;28;20046;-44
2021/10/24 00:46:53;;;;;;;12.68;6.55;;;;;;;9.09;83.79;102629.09;4992673;28;20046;-46
2021/10/24 00:49:22;;;;;;;11.95;5.90;;;;;;;9.09;83.54;102631.81;4990743;28;20057;-46
2021/10/24 00:51:51;;;;;;;13.02;6.45;;;;;;;9.07;83.43;102636.66;4993394;28;20054;-45
2021/10/24 00:54:22;;;;;;;11.30;6.20;;;;;;;9.03;83.05;102633.50;4992576;28;20114;-44
2021/10/24 00:56:53;;;;;;;12.13;5.95;;;;;;;8.99;83.36;102634.97;4992961;28;20045;-46
2021/10/24 00:59:25;;;;;;;15.15;6.20;;;;;;;8.99;82.96;102623.25;4992751;28;20061;-46
2021/10/24 01:01:53;;;;;;;12.23;6.47;;;;;;;8.98;83.62;102635.19;4993184;28;20066;-45
2021/10/24 01:04:23;;;;;;;12.95;6.28;;;;;;;8.96;82.85;102629.97;4984649;28;20089;-46
2021/10/24 01:06:53;;;;;;;11.55;6.30;;;;;;;8.95;83.50;102631.03;4992865;28;20050;-46
2021/10/24 01:09:23;;;;;;;15.95;6.80;;;;;;;8.91;82.69;102625.16;4991827;28;20122;-48
2021/10/24 01:11:52;;;;;;;11.10;6.30;;;;;;;8.87;82.90;102626.63;4991566;28;20484;-48
2021/10/24 01:14:20;;;;;;;12.75;6.22;;;;;;;8.87;83.24;102626.63;4992247;28;20042;-45
2021/10/24 01:16:51;;;;;;;11.15;6.15;;;;;;;8.88;82.96;102619.31;4990876;28;20096;-45
2021/10/24 01:19:20;;;;;;;14.20;6.53;;;;;;;8.90;83.49;102622.69;4990365;28;20054;-45
2021/10/24 01:21:49;;;;;;;13.68;6.28;;;;;;;8.91;82.73;102614.28;4991665;28;20125;-45
2021/10/24 01:24:16;;;;;;;13.27;6.13;;;;;;;8.90;82.71;102620.78;4988866;28;20057;-45
2021/10/24 01:26:44;;;;;;;10.95;6.10;;;;;;;8.88;82.58;102612.00;4990248;28;20409;-46
2021/10/24 01:29:13;;;;;;;12.27;7.00;;;;;;;8.87;82.01;102606.75;5006042;28;20497;-47
2021/10/24 01:31:42;;;;;;;12.05;6.00;;;;;;;8.86;82.72;102607.84;4975124;28;20178;-45
2021/10/24 01:34:11;;;;;;;14.10;6.57;;;;;;;8.84;82.91;102610.75;4984706;28;20453;-45
2021/10/24 01:36:41;;;;;;;12.15;6.40;;;;;;;8.84;82.51;102608.03;4992259;28;20534;-46
2021/10/24 01:39:09;;;;;;;12.32;6.35;;;;;;;8.82;81.83;102601.97;4991172;28;20053;-45
2021/10/24 01:41:37;;;;;;;14.45;6.95;;;;;;;8.80;82.09;102598.63;4990508;28;20448;-43
2021/10/24 01:44:05;;;;;;;12.55;6.30;;;;;;;8.79;82.60;102605.13;4991584;28;20058;-45
2021/10/24 01:46:34;;;;;;;10.65;6.00;;;;;;;8.79;82.53;102593.41;4990167;28;20126;-44
2021/10/24 01:49:02;;;;;;;10.98;6.35;;;;;;;8.77;81.70;102590.91;4987575;28;20038;-44
2021/10/24 01:51:30;;;;;;;14.43;6.10;;;;;;;8.76;82.16;102586.53;4990360;28;20038;-46
2021/10/24 01:53:57;;;;;;;11.55;6.38;;;;;;;8.76;82.33;102583.81;4990514;28;20038;-44
2021/10/24 01:56:25;;;;;;;15.30;6.50;;;;;;;8.75;82.34;102584.84;4990525;28;20502;-46
2021/10/24 01:58:53;;;;;;;9.95;6.20;;;;;;;8.72;81.35;102583.38;4990494;28;20047;-46
2021/10/24 02:01:52;;;;;;;12.70;6.82;;;;;;;8.64;81.65;102578.19;4957809;28;20070;-47
2021/10/24 02:04:39;;;;;;;11.82;6.18;;;;;;;8.57;81.70;102573.81;4960147;28;20113;-44
2021/10/24 02:07:19;;;;;;;12.95;6.30;;;;;;;8.57;82.14;102584.69;4949767;28;20507;-47
2021/10/24 02:09:46;;;;;;;10.90;6.13;;;;;;;8.59;82.10;102582.59;4952461;28;20051;-44
2021/10/24 02:12:15;;;;;;;13.90;6.50;;;;;;;8.60;82.50;102578.81;4936502;28;20050;-44
2021/10/24 02:14:43;;;;;;;17.80;6.60;;;;;;;8.60;81.54;102574.22;4953683;28;20485;-46
2021/10/24 02:17:10;;;;;;;13.60;6.25;;;;;;;8.61;82.21;102564.16;4953323;28;20110;-45
2021/10/24 02:19:40;;;;;;;13.02;7.15;;;;;;;8.60;81.43;102563.34;4978523;28;20508;-47
2021/10/24 02:22:07;;;;;;;11.57;6.30;;;;;;;8.59;81.17;102561.69;4989802;28;20051;-48
2021/10/24 02:24:35;;;;;;;11.57;6.30;;;;;;;8.56;81.84;102551.22;4976899;28;20260;-46
2021/10/24 02:27:03;;;;;;;12.20;6.07;;;;;;;8.52;81.66;102553.53;4989910;28;20035;-47
2021/10/24 02:29:32;;;;;;;10.10;5.90;;;;;;;8.47;80.55;102560.66;4989872;28;20057;-47
2021/10/24 02:32:00;;;;;;;10.32;6.20;;;;;;;8.39;80.53;102552.69;4988519;28;20038;-46
2021/10/24 02:34:45;;;;;;;12.25;6.20;;;;;;;8.30;81.70;102546.66;4984658;28;20145;-44
2021/10/24 02:37:26;;;;;;;12.30;5.97;;;;;;;8.25;81.33;102550.00;4954906;28;1053715;-45
2021/10/24 02:39:54;;;;;;;11.13;6.30;;;;;;;8.24;81.83;102542.06;4978720;28;20080;-46
2021/10/24 02:42:27;;;;;;;13.48;6.05;;;;;;;8.21;81.60;102540.59;4990831;28;20051;-46
2021/10/24 02:44:54;;;;;;;12.23;6.13;;;;;;;8.24;82.24;102544.75;4990934;28;20166;-47
2021/10/24 02:47:22;;;;;;;9.30;5.47;;;;;;;8.24;82.02;102534.72;4991182;28;20042;-46
2021/10/24 02:49:50;;;;;;;11.98;6.10;;;;;;;8.21;81.63;102528.91;4991598;28;20515;-46
2021/10/24 02:52:18;;;;;;;12.30;5.85;;;;;;;8.20;81.48;102527.22;4980597;28;20058;-46
2021/10/24 02:54:46;;;;;;;11.25;6.38;;;;;;;8.20;81.71;102529.94;4986590;28;20046;-47
2021/10/24 02:57:13;;;;;;;14.07;7.18;;;;;;;8.19;81.16;102528.28;4990583;28;20096;-43
2021/10/24 02:59:41;;;;;;;13.65;5.80;;;;;;;8.15;81.85;102524.28;4991003;28;20038;-46
2021/10/24 03:02:08;;;;;;;10.43;6.18;;;;;;;8.18;81.37;102526.59;4989156;28;20049;-46
2021/10/24 03:04:36;;;;;;;10.02;5.65;;;;;;;8.18;81.83;102529.28;4990910;28;20050;-45
2021/10/24 03:07:04;;;;;;;11.07;6.10;;;;;;;8.19;81.46;102529.09;4990313;28;20142;-45
2021/10/24 03:09:32;;;;;;;10.20;5.75;;;;;;;8.23;82.15;102529.53;4990281;28;20056;-46
2021/10/24 03:12:00;;;;;;;10.38;5.90;;;;;;;8.24;81.75;102526.59;4987769;28;20077;-45
2021/10/24 03:14:28;;;;;;;9.13;5.50;;;;;;;8.25;81.28;102525.56;4990308;28;20405;-44
2021/10/24 03:16:57;;;;;;;9.70;6.20;;;;;;;8.25;82.00;102521.97;4991829;28;20061;-47
2021/10/24 03:19:26;;;;;;;9.88;5.65;;;;;;;8.23;81.50;102521.38;4992597;28;20039;-46
2021/10/24 03:21:56;;;;;;;13.57;5.93;;;;;;;8.24;81.26;102520.31;4993681;28;20046;-43
2021/10/24 03:24:24;;;;;;;10.10;5.32;;;;;;;8.19;80.71;102517.41;4994960;28;20057;-44
2021/10/24 03:26:52;;;;;;;10.15;5.60;;;;;;;8.11;80.80;102519.28;4977491;28;20074;-45
2021/10/24 03:29:20;;;;;;;9.82;5.60;;;;;;;8.03;80.50;102514.09;4991774;28;20034;-44
2021/10/24 03:31:48;;;;;;;12.73;6.25;;;;;;;7.96;80.88;102515.09;4987322;28;20082;-46
2021/10/24 03:34:17;;;;;;;11.02;6.15;;;;;;;7.84;81.14;102517.59;4988230;28;20490;-43
2021/10/24 03:36:45;;;;;;;9.55;5.50;;;;;;;7.81;82.34;102512.59;4992944;28;20064;-44
2021/10/24 03:39:14;;;;;;;12.10;5.90;;;;;;;7.76;81.06;102509.69;4990514;28;20070;-47
2021/10/24 03:41:42;;;;;;;10.73;5.70;;;;;;;7.73;81.71;102512.81;4987143;28;20501;-45
2021/10/24 03:44:12;;;;;;;10.60;5.20;;;;;;;7.68;81.91;102511.56;4994597;28;20046;-46
2021/10/24 03:46:39;;;;;;;11.38;5.95;;;;;;;7.71;82.40;102513.00;4992960;28;20045;-42
2021/10/24 03:49:11;;;;;;;12.73;5.80;;;;;;;7.71;82.02;102513.00;4992086;28;20050;-46
2021/10/24 03:51:42;;;;;;;9.35;5.40;;;;;;;7.65;81.38;102511.97;4992709;28;20042;-47
2021/10/24 03:54:11;;;;;;;9.77;5.80;;;;;;;7.59;82.20;102518.22;4989815;28;20163;-46
2021/10/24 03:56:39;;;;;;;11.88;5.93;;;;;;;7.56;82.91;102513.22;4992604;28;20057;-44
2021/10/24 03:59:07;;;;;;;10.02;5.57;;;;;;;7.57;81.97;102514.88;4993242;28;20054;-45
2021/10/24 04:01:36;;;;;;;9.30;5.55;;;;;;;7.58;82.33;102516.56;4992481;28;20074;-43
2021/10/24 04:04:04;;;;;;;9.48;5.43;;;;;;;7.60;83.01;102511.75;4994442;28;20560;-46
2021/10/24 04:06:33;;;;;;;9.85;5.32;;;;;;;7.61;82.77;102510.72;4992644;28;20101;-43
2021/10/24 04:09:01;;;;;;;9.70;5.47;;;;;;;7.62;82.03;102515.06;4989299;28;20544;-45
2021/10/24 04:11:29;;;;;;;10.35;5.30;;;;;;;7.62;83.00;102512.38;4988413;28;20425;-43
2021/10/24 04:13:57;;;;;;;11.25;5.60;;;;;;;7.63;82.45;102505.09;4992782;28;20058;-45
2021/10/24 04:16:25;;;;;;;10.55;5.47;;;;;;;7.59;82.16;102510.06;4994086;28;20045;-45
2021/10/24 04:19:12;;;;;;;10.52;5.72;;;;;;;7.54;82.12;102509.88;4954079;28;20560;-45
2021/10/24 04:21:45;;;;;;;12.23;5.90;;;;;;;7.49;82.41;102506.94;4936813;28;20474;-45
2021/10/24 04:24:13;;;;;;;9.23;5.20;;;;;;;7.47;82.94;102503.59;4953451;28;20882;-47
2021/10/24 04:26:40;;;;;;;8.68;4.93;;;;;;;7.46;82.36;102501.94;4937021;29;20167;-46
2021/10/24 04:29:10;;;;;;;10.50;5.68;;;;;;;7.47;83.07;102504.41;4935360;29;20047;-43
2021/10/24 04:31:39;;;;;;;9.40;5.10;;;;;;;7.46;82.80;102501.94;4946105;28;20054;-46
2021/10/24 04:34:07;;;;;;;9.52;5.05;;;;;;;7.49;82.88;102498.81;4953587;28;20054;-45
2021/10/24 04:36:36;;;;;;;12.15;5.40;;;;;;;7.51;82.38;102494.00;4939961;28;20058;-45
2021/10/24 04:39:05;;;;;;;9.73;5.60;;;;;;;7.51;81.87;102494.00;4942730;28;20059;-45
2021/10/24 04:41:34;;;;;;;9.45;5.10;;;;;;;7.48;82.32;102491.72;4936526;29;20559;-46
2021/10/24 04:44:04;;;;;;;9.35;5.22;;;;;;;7.49;82.15;102490.66;4937674;28;20059;-45
2021/10/24 04:46:32;;;;;;;9.85;5.35;;;;;;;7.49;82.27;102485.25;4937870;28;20055;-45
2021/10/24 04:49:00;;;;;;;10.90;5.53;;;;;;;7.50;81.89;102486.91;4945417;29;20055;-46
2021/10/24 04:51:27;;;;;;;9.68;5.22;;;;;;;7.43;82.72;102480.63;4936058;28;20039;-46
2021/10/24 04:53:57;;;;;;;15.02;5.30;;;;;;;7.35;82.82;102486.25;4931516;29;20098;-46
2021/10/24 04:56:24;;;;;;;9.82;5.18;;;;;;;7.29;82.99;102484.34;4959083;28;20043;-45
2021/10/24 04:58:52;;;;;;;10.68;5.10;;;;;;;7.23;83.70;102484.13;4990388;28;20120;-46
2021/10/24 05:01:20;;;;;;;11.30;5.60;;;;;;;7.27;83.10;102486.47;4992078;28;20061;-47
2021/10/24 05:03:48;;;;;;;11.25;6.15;;;;;;;7.30;82.84;102475.19;4992754;28;20093;-43
2021/10/24 05:06:18;;;;;;;10.85;5.07;;;;;;;7.33;82.53;102475.59;4984302;28;20059;-43
2021/10/24 05:08:46;;;;;;;18.38;5.47;;;;;;;7.37;83.18;102473.34;5005642;28;20501;-46
2021/10/24 05:11:14;;;;;;;9.98;5.45;;;;;;;7.40;83.00;102470.19;4992894;28;20042;-46
2021/10/24 05:13:41;;;;;;;11.07;5.50;;;;;;;7.39;81.71;102465.84;4991478;28;20122;-46
2021/10/24 05:16:09;;;;;;;10.43;5.00;;;;;;;7.36;82.77;102463.50;4991241;28;20046;-46
2021/10/24 05:18:37;;;;;;;10.88;5.28;;;;;;;7.35;82.16;102462.69;4989816;28;20153;-45
2021/10/24 05:21:05;;;;;;;11.18;5.80;;;;;;;7.36;82.13;102453.53;4988121;28;20038;-46
2021/10/24 05:23:32;;;;;;;8.23;4.72;;;;;;;7.39;82.15;102454.97;4989820;28;20097;-46
2021/10/24 05:26:04;;;;;;;10.25;5.53;;;;;;;7.41;82.02;102456.44;4991456;28;20051;-46
2021/10/24 05:28:33;;;;;;;12.73;5.35;;;;;;;7.38;81.88;102456.00;4984796;28;20054;-46
2021/10/24 05:31:00;;;;;;;11.63;5.13;;;;;;;7.36;81.77;102445.38;4989331;28;20535;-44
2021/10/24 05:33:30;;;;;;;9.60;5.30;;;;;;;7.30;81.56;102443.50;4991462;28;20042;-46
2021/10/24 05:36:33;;;;;;;9.95;5.07;;;;;;;7.27;81.97;102446.63;4951040;28;20050;-46
2021/10/24 05:39:01;;;;;;;10.95;5.30;;;;;;;7.27;82.69;102443.91;4950809;28;20054;-45
2021/10/24 05:41:32;;;;;;;13.25;5.95;;;;;;;7.25;81.81;102444.09;4951351;28;20055;-47
2021/10/24 05:44:00;;;;;;;10.95;5.50;;;;;;;7.27;82.69;102445.78;4951573;28;20059;-46
2021/10/24 05:46:28;;;;;;;9.65;5.18;;;;;;;7.27;82.61;102443.91;4951631;28;20582;-46
2021/10/24 05:49:01;;;;;;;9.68;5.03;;;;;;;7.28;82.36;102444.75;4950776;28;20047;-47
2021/10/24 05:51:29;;;;;;;9.40;4.70;;;;;;;7.27;82.52;102433.06;4950923;28;20053;-47
2021/10/24 05:53:57;;;;;;;10.32;4.45;;;;;;;7.29;82.54;102446.41;4951427;28;20130;-46
2021/10/24 05:56:32;;;;;;;10.48;4.88;;;;;;;7.29;82.23;102435.56;4951187;28;20129;-47
2021/10/24 05:59:01;;;;;;;11.38;4.80;;;;;;;7.28;82.00;102440.13;4950789;28;20075;-46
2021/10/24 06:01:44;;;;;;;10.40;4.60;;;;;;;7.25;81.80;102441.38;4950834;28;20064;-53
2021/10/24 06:04:31;;;;;;;12.25;4.90;;;;;;;7.22;81.71;102439.09;4950945;28;20050;-47
2021/10/24 06:07:19;;;;;;;10.27;4.68;;;;;;;7.22;82.19;102430.97;4950557;28;20525;-47
2021/10/24 06:09:53;;;;;;;9.52;4.45;;;;;;;7.20;81.17;102435.75;4957608;28;20058;-44
2021/10/24 06:15:12;;;;;;;9.10;4.30;;;;;;;7.06;81.38;102425.94;4992237;28;20077;-47
2021/10/24 06:17:40;;;;;;;11.77;4.50;;;;;;;7.01;81.71;102426.53;4986552;28;20043;-46
2021/10/24 06:20:09;;;;;;;8.90;4.00;;;;;;;6.99;81.89;102420.47;4982479;28;20046;-43
2021/10/24 06:22:37;;;;;;;9.82;4.32;;;;;;;6.99;82.35;102425.06;4989233;28;20145;-47
2021/10/24 06:25:09;;;;;;;11.13;4.15;;;;;;;7.01;82.61;102423.00;4990921;28;20540;-45
2021/10/24 06:27:42;;;;;;;10.88;4.30;;;;;;;7.02;82.32;102424.66;4987058;28;20046;-46
2021/10/24 06:30:13;;;;;;;11.40;4.35;;;;;;;7.03;82.38;102418.22;4985221;28;20081;-47
2021/10/24 06:33:04;;;;;;;10.88;4.20;;;;;;;7.02;81.92;102419.22;4982428;28;20058;-44
2021/10/24 06:35:54;;;;;;;10.90;4.57;;;;;;;6.99;82.07;102409.66;4984786;28;20042;-46
2021/10/24 06:38:24;;;;;;;10.45;4.47;;;;;;;6.99;81.62;102414.22;4972991;28;20058;-46
2021/10/24 06:40:59;;;;;;;8.73;4.45;;;;;;;6.98;82.17;102418.00;4959662;28;20046;-45
2021/10/24 06:43:28;;;;;;;10.25;4.85;;;;;;;6.97;82.41;102416.31;4986036;28;20084;-47
2021/10/24 06:46:05;;;;;;;8.65;4.10;;;;;;;6.97;81.67;102419.00;4979933;28;20054;-47
2021/10/24 06:48:48;;;;;;;11.40;4.53;;;;;;;6.90;82.77;102416.28;4975209;28;20054;-43
2021/10/24 06:51:20;;;;;;;11.10;4.63;;;;;;;6.87;82.11;102410.44;4980669;28;20043;-43
2021/10/24 06:54:26;;;;;;;10.82;4.35;;;;;;;6.80;82.42;102413.13;4962623;28;20116;-46
2021/10/24 06:57:11;;;;;;;10.68;4.50;;;;;;;6.77;83.42;102413.56;4982172;28;20507;-47
2021/10/24 07:00:09;;;;;;;11.98;4.82;;;;;;;6.79;83.07;102409.59;4901499;29;20052;-45
2021/10/24 07:02:57;;;;;;;11.05;4.57;;;;;;;6.77;83.24;102413.56;4894252;29;20053;-46
2021/10/24 07:05:43;;;;;;;10.07;4.35;;;;;;;6.76;83.74;102410.00;4902999;29;20150;-46
2021/10/24 07:08:20;;;;;;;11.27;4.50;;;;;;;6.83;84.22;102410.88;4884634;29;20135;-49
2021/10/24 07:10:48;;;;;;;9.77;4.15;;;;;;;6.87;83.74;102405.88;4890363;29;20055;-46
2021/10/24 07:13:16;;;;;;;10.02;4.78;;;;;;;6.88;83.38;102406.69;4909179;29;20586;-46
2021/10/24 07:15:57;;;;;;;13.57;4.60;;;;;;;6.95;83.81;102405.69;4894934;29;20115;-47
2021/10/24 07:18:25;;;;;;;12.02;4.82;;;;;;;7.01;83.93;102398.59;4915116;29;20052;-46
2021/10/24 07:20:52;;;;;;;8.32;4.68;;;;;;;7.03;83.77;102393.81;4912109;29;20171;-46
2021/10/24 07:23:20;;;;;;;9.50;4.65;;;;;;;7.04;83.80;102399.00;4924462;29;20989;-47
2021/10/24 07:26:13;;;;;;;9.40;4.32;;;;;;;7.10;83.48;102400.09;4908604;29;20131;-46
2021/10/24 07:28:41;;;;;;;10.95;4.72;;;;;;;7.14;82.70;102401.31;4899373;29;20158;-47
2021/10/24 07:31:25;;;;;;;10.77;4.80;;;;;;;7.21;83.33;102396.75;4901106;29;20533;-46
2021/10/24 07:34:19;;;;;;;10.75;4.78;;;;;;;7.25;83.20;102394.47;4922540;29;20050;-48
2021/10/24 07:36:47;;;;;;;12.25;4.45;;;;;;;7.29;82.68;102386.75;4966626;28;20050;-46
2021/10/24 07:39:15;;;;;;;11.32;5.30;;;;;;;7.33;82.80;102382.59;4997268;28;20401;-46
2021/10/24 07:41:44;;;;;;;9.82;4.60;;;;;;;7.34;81.93;102381.56;5008246;28;20412;-45
2021/10/24 07:44:14;;;;;;;11.30;5.30;;;;;;;7.35;82.19;102383.22;5004074;28;20057;-46
2021/10/24 07:46:42;;;;;;;11.73;5.35;;;;;;;7.35;81.98;102381.34;4985301;28;20472;-46
2021/10/24 07:49:11;;;;;;;9.73;4.55;;;;;;;7.37;82.85;102386.56;5002478;28;20494;-46
2021/10/24 07:51:41;;;;;;;10.07;4.38;;;;;;;7.40;82.23;102389.69;4997938;28;20121;-46
2021/10/24 07:54:09;;;;;;;8.85;4.75;;;;;;;7.44;82.14;102384.69;5006957;28;20048;-44
2021/10/24 07:56:37;;;;;;;11.77;4.70;;;;;;;7.46;81.90;102374.47;5007018;28;20763;-46
2021/10/24 07:59:15;;;;;;;9.85;4.65;;;;;;;7.49;82.55;102384.88;5005332;28;20068;-45
2021/10/24 08:01:44;;;;;;;10.27;5.30;;;;;;;7.50;82.22;102375.69;4989147;28;20038;-46
2021/10/24 08:04:13;;;;;;;11.13;5.25;;;;;;;7.51;82.20;102380.09;4997039;28;20053;-48
2021/10/24 08:06:41;;;;;;;10.43;5.22;;;;;;;7.53;81.68;102372.59;5004567;28;20050;-45
2021/10/24 08:09:12;;;;;;;9.27;5.03;;;;;;;7.56;81.77;102369.44;5000108;28;20043;-45
2021/10/24 08:11:47;;;;;;;11.70;5.72;;;;;;;7.57;82.30;102373.00;5004394;28;20046;-48
2021/10/24 08:14:16;;;;;;;10.68;4.72;;;;;;;7.58;82.22;102359.22;4990076;28;20126;-49
2021/10/24 08:16:44;;;;;;;12.93;5.50;;;;;;;7.57;82.44;102362.97;4984040;28;20844;-49
2021/10/24 08:19:16;;;;;;;10.40;4.57;;;;;;;7.60;81.79;102359.00;4992454;28;20109;-48
2021/10/24 08:21:59;;;;;;;10.52;5.55;;;;;;;7.62;82.55;102360.47;4992786;28;20096;-48
2021/10/24 08:24:27;;;;;;;10.82;5.32;;;;;;;7.67;82.42;102373.38;4992498;28;20073;-47
2021/10/24 08:27:07;;;;;;;12.57;4.85;;;;;;;7.69;82.40;102352.31;4992374;28;20050;-47
2021/10/24 08:29:35;;;;;;;9.27;5.65;;;;;;;7.69;81.92;102353.16;4993110;28;20418;-49
2021/10/24 08:32:10;;;;;;;11.75;5.20;;;;;;;7.71;82.04;102352.13;4985775;28;20053;-47
2021/10/24 08:34:39;;;;;;;10.30;5.30;;;;;;;7.75;82.44;102347.94;4992035;28;20125;-50
2021/10/24 08:37:08;;;;;;;12.25;5.75;;;;;;;7.77;82.49;102340.41;4993423;28;20066;-46
2021/10/24 08:39:36;;;;;;;10.57;5.30;;;;;;;7.81;82.62;102341.66;4993527;28;20042;-48
2021/10/24 08:42:05;;;;;;;11.98;5.43;;;;;;;7.83;82.07;102331.44;4992893;28;20042;-47
2021/10/24 08:44:33;;;;;;;12.18;4.82;;;;;;;7.86;82.71;102325.56;4991612;28;20054;-45
2021/10/24 08:47:02;;;;;;;13.70;5.43;;;;;;;7.89;82.20;102322.44;4993204;28;20394;-48
2021/10/24 08:49:29;;;;;;;11.82;5.95;;;;;;;7.90;81.74;102318.66;4993361;28;20548;-47
2021/10/24 08:51:57;;;;;;;10.80;5.40;;;;;;;7.89;82.40;102319.72;4992983;28;20679;-49
2021/10/24 08:54:27;;;;;;;11.25;5.75;;;;;;;7.89;82.48;102320.56;4991863;28;20091;-46
2021/10/24 08:56:55;;;;;;;10.38;5.30;;;;;;;7.92;82.06;102319.28;4992767;28;20503;-46
2021/10/24 08:59:23;;;;;;;11.13;5.40;;;;;;;7.95;82.06;102310.72;4993090;28;20054;-45
2021/10/24 09:01:55;;;;;;;14.73;5.47;;;;;;;7.98;82.81;102318.44;4992590;28;21187;-46
2021/10/24 09:04:24;;;;;;;10.23;5.60;;;;;;;7.98;81.86;102318.44;5007976;28;20049;-48
2021/10/24 09:06:56;;;;;;;11.90;5.60;;;;;;;8.00;82.46;102316.34;4992892;28;20050;-47
2021/10/24 09:09:31;;;;;;;14.30;5.65;;;;;;;8.03;82.67;102315.06;4992896;28;20042;-47
2021/10/24 09:12:01;;;;;;;9.93;5.03;;;;;;;8.04;82.17;102314.88;4992389;28;20046;-47
2021/10/24 09:14:50;;;;;;;13.35;5.70;;;;;;;8.06;82.82;102315.50;4990749;28;20489;-47
2021/10/24 09:17:22;;;;;;;14.75;6.40;;;;;;;8.07;81.66;102306.28;4992350;28;20046;-47
2021/10/24 09:19:52;;;;;;;15.90;6.40;;;;;;;8.10;82.02;102303.16;4992700;28;20493;-46
2021/10/24 09:22:33;;;;;;;13.63;5.60;;;;;;;8.14;82.00;102302.72;4992357;28;20050;-48
2021/10/24 09:25:11;;;;;;;10.77;5.97;;;;;;;8.15;82.27;102304.38;4992143;28;20078;-48
2021/10/24 09:27:44;;;;;;;11.63;5.53;;;;;;;8.18;81.65;102309.38;4992302;28;20042;-46
2021/10/24 09:30:25;;;;;;;10.32;5.30;;;;;;;8.21;81.67;102311.69;4992773;28;20393;-46
2021/10/24 09:32:52;;;;;;;15.15;5.57;;;;;;;8.22;82.15;102300.59;4992060;28;20049;-48
2021/10/24 09:35:26;;;;;;;13.23;6.75;;;;;;;8.24;81.36;102300.38;4992667;28;20041;-46
2021/10/24 09:38:17;;;;;;;9.93;5.72;;;;;;;8.25;81.00;102304.75;4979328;28;20387;-47
2021/10/24 09:40:56;;;;;;;11.15;5.60;;;;;;;8.24;80.97;102294.94;4991090;28;20057;-51
2021/10/24 09:43:29;;;;;;;13.25;5.80;;;;;;;8.26;81.68;102287.44;4990726;28;20524;-47
2021/10/24 09:45:59;;;;;;;12.10;5.50;;;;;;;8.27;81.37;102286.38;4992130;28;20493;-47
2021/10/24 09:48:29;;;;;;;10.20;5.47;;;;;;;8.31;81.61;102293.88;4979459;28;20042;-46
2021/10/24 09:51:00;;;;;;;11.45;5.82;;;;;;;8.36;81.49;102289.69;4991764;28;20041;-48
2021/10/24 09:53:30;;;;;;;11.05;5.80;;;;;;;8.40;80.66;102294.50;4992160;28;20042;-45
2021/10/24 09:56:01;;;;;;;11.18;5.72;;;;;;;8.42;80.79;102286.09;4991893;28;20214;-47
2021/10/24 09:58:31;;;;;;;11.32;5.43;;;;;;;8.45;80.81;102288.41;4992191;28;20485;-46
2021/10/24 10:01:00;;;;;;;11.25;5.60;;;;;;;8.46;80.04;102293.59;4992270;28;20129;-44
2021/10/24 10:03:28;;;;;;;13.30;5.60;;;;;;;8.47;80.41;102287.13;4990187;28;20432;-46
2021/10/24 10:05:57;;;;;;;13.77;5.47;;;;;;;8.50;80.44;102285.88;4992035;28;20057;-47
2021/10/24 10:08:42;;;;;;;10.02;5.70;;;;;;;8.53;80.54;102288.97;4991984;28;20050;-47
2021/10/24 10:11:27;;;;;;;11.32;5.53;;;;;;;8.57;80.24;102281.22;4991748;28;20045;-47
2021/10/24 10:14:04;;;;;;;12.25;5.72;;;;;;;8.60;79.80;102277.25;4988210;28;20562;-47
2021/10/24 10:16:38;;;;;;;10.88;5.90;;;;;;;8.60;79.11;102282.66;4991667;28;20485;-49
2021/10/24 10:19:08;;;;;;;10.95;4.93;;;;;;;8.60;79.53;102279.97;5007105;28;20043;-45
2021/10/24 10:21:49;;;;;;;10.75;5.30;;;;;;;8.62;79.17;102280.56;4991518;28;20047;-48
2021/10/24 10:24:34;;;;;;;13.65;5.57;;;;;;;8.64;78.70;102271.16;4991539;28;20416;-46
2021/10/24 10:27:23;;;;;;;11.07;6.70;;;;;;;8.65;78.29;102270.09;4993558;28;20497;-48
2021/10/24 10:29:56;;;;;;;11.93;5.68;;;;;;;8.69;79.35;102265.06;4983328;28;20042;-45
2021/10/24 10:32:39;;;;;;;10.13;5.60;;;;;;;8.70;79.27;102274.88;4990141;28;20054;-47
2021/10/24 10:35:13;;;;;;;10.48;5.68;;;;;;;8.72;78.39;102275.47;4995663;28;20054;-47
2021/10/24 10:38:01;;;;;;;11.73;5.30;;;;;;;8.76;79.35;102276.72;4995049;28;20058;-48
2021/10/24 10:40:40;;;;;;;12.20;6.07;;;;;;;8.78;78.95;102271.03;4995317;28;20046;-46
2021/10/24 10:43:12;;;;;;;12.32;5.78;;;;;;;8.78;78.06;102269.19;4994281;28;20045;-49
2021/10/24 10:45:43;;;;;;;12.23;6.03;;;;;;;8.79;78.87;102264.56;5010614;28;20409;-51
2021/10/24 10:48:44;;;;;;;13.95;6.10;;;;;;;8.83;79.03;102269.34;4995421;28;20038;-47
2021/10/24 10:51:25;;;;;;;10.88;6.20;;;;;;;8.88;79.19;102261.34;4995003;28;20053;-47
2021/10/24 10:54:05;;;;;;;12.20;6.20;;;;;;;8.90;79.24;102261.97;5010022;28;20520;-45
2021/10/24 10:56:46;;;;;;;11.23;5.47;;;;;;;8.96;79.48;102252.91;4995344;28;20045;-49
2021/10/24 10:59:22;;;;;;;12.38;5.90;;;;;;;9.01;79.63;102248.72;4995409;28;20085;-47
2021/10/24 11:01:49;;;;;;;12.13;6.65;;;;;;;9.06;79.00;102243.44;5009884;28;20042;-47
2021/10/24 11:04:22;;;;;;;10.00;5.55;;;;;;;9.09;78.73;102246.56;5010007;28;20101;-46
2021/10/24 11:06:50;;;;;;;10.80;5.78;;;;;;;9.12;77.88;102248.81;4995043;28;20042;-47
2021/10/24 11:09:44;;;;;;;13.13;6.20;;;;;;;9.15;77.62;102247.53;4994910;28;20031;-46
2021/10/24 11:12:37;;;;;;;11.23;6.10;;;;;;;9.18;77.44;102247.06;4994612;28;20069;-50
2021/10/24 11:15:08;;;;;;;11.15;5.75;;;;;;;9.26;79.19;102246.81;4994881;28;20058;-48
2021/10/24 11:17:42;;;;;;;12.10;6.68;;;;;;;9.31;78.04;102255.13;4994451;28;20490;-48
2021/10/24 11:20:14;;;;;;;17.15;8.55;;;;;;;9.33;77.29;102246.72;4995031;28;20038;-46
2021/10/24 11:23:05;;;;;;;9.65;5.38;;;;;;;9.37;77.36;102248.78;4994161;28;20109;-47
2021/10/24 11:25:47;;;;;;;11.23;4.80;;;;;;;9.50;82.32;102241.53;4994432;28;20116;-47
2021/10/24 11:28:18;;;;;;;12.25;6.22;;;;;;;9.46;77.49;102243.88;4994882;28;20830;-45
2021/10/24 11:31:03;;;;;;;12.55;5.93;;;;;;;9.47;76.83;102241.97;4994858;28;20042;-49
2021/10/24 11:33:51;;;;;;;11.00;5.10;;;;;;;9.52;77.93;102242.97;4994420;28;20079;-48
2021/10/24 11:36:24;;;;;;;10.40;4.78;;;;;;;9.70;84.20;102239.44;4994615;28;20077;-48
2021/10/24 11:39:03;;;;;;;11.52;5.55;;;;;;;9.67;79.39;102236.31;4993775;28;20413;-47
2021/10/24 11:41:31;;;;;;;23.50;15.00;;;;;;;9.65;76.27;102231.13;4994450;28;20042;-47
2021/10/24 11:44:09;;;;;;;12.85;6.28;;;;;;;9.78;79.89;102233.66;4994212;28;20058;-47
2021/10/24 11:46:37;;;;;;;10.60;5.03;;;;;;;9.85;81.63;102227.31;4994030;28;20038;-48
2021/10/24 11:49:05;;;;;;;11.68;5.40;;;;;;;9.78;77.09;102214.59;4994320;28;20042;-47
2021/10/24 11:51:34;;;;;;;11.02;5.68;;;;;;;9.77;76.14;102214.84;4994165;28;20038;-48
2021/10/24 11:54:02;;;;;;;11.52;5.80;;;;;;;9.77;75.63;102220.31;4993693;28;20424;-45